createdAt,value
2023-04-10T00:00:35.552Z,40.28
2023-04-10T00:03:04.700Z,43.58
2023-04-10T00:05:32.746Z,38.95
2023-04-10T00:08:01.068Z,36.78
2023-04-10T00:10:31.475Z,41.17
2023-04-10T00:13:00.958Z,39.22
2023-04-10T00:15:29.803Z,40.95
2023-04-10T00:17:58.103Z,38.33
2023-04-10T00:20:27.462Z,36.10
2023-04-10T00:22:55.687Z,27.75
2023-04-10T00:25:24.575Z,31.27
2023-04-10T00:27:52.459Z,26.38
2023-04-10T00:30:22.900Z,27.10
2023-04-10T00:35:18.527Z,24.85
2023-04-10T00:37:47.339Z,22.60
2023-04-10T00:40:15.085Z,19.98
2023-04-10T00:42:43.416Z,20.52
2023-04-10T00:45:12.153Z,17.77
2023-04-10T00:47:41.987Z,18.63
2023-04-10T00:50:11.170Z,18.55
2023-04-10T00:52:39.237Z,16.77
2023-04-10T00:55:08.664Z,17.45
2023-04-10T00:57:37.390Z,18.45
2023-04-10T01:00:05.812Z,15.68
2023-04-10T01:02:33.903Z,19.45
2023-04-10T01:05:04.271Z,17.73
2023-04-10T01:07:36.646Z,15.85
2023-04-10T01:10:08.797Z,16.05
2023-04-10T01:12:44.251Z,16.77
2023-04-10T01:15:14.611Z,16.70
2023-04-10T01:17:45.261Z,16.17
2023-04-10T01:20:21.050Z,15.88
2023-04-10T01:23:03.207Z,15.85
2023-04-10T01:25:40.087Z,17.60
2023-04-10T01:28:17.216Z,16.50
2023-04-10T01:30:49.045Z,14.68
2023-04-10T01:33:19.905Z,16.58
2023-04-10T01:35:53.947Z,14.07
2023-04-10T01:38:22.556Z,14.07
2023-04-10T01:40:52.043Z,13.15
2023-04-10T01:43:29.116Z,13.60
2023-04-10T01:46:00.593Z,13.50
2023-04-10T01:48:28.911Z,14.05
2023-04-10T01:50:58.312Z,12.75
2023-04-10T01:53:26.670Z,13.00
2023-04-10T01:55:54.942Z,13.13
2023-04-10T01:58:23.906Z,13.95
2023-04-10T02:00:55.582Z,13.00
2023-04-10T02:03:26.006Z,11.57
2023-04-10T02:08:26.248Z,11.43
2023-04-10T02:10:57.101Z,12.70
2023-04-10T02:13:27.617Z,12.15
2023-04-10T02:18:25.440Z,12.38
2023-04-10T02:20:55.004Z,12.18
2023-04-10T02:23:23.203Z,10.23
2023-04-10T02:25:51.035Z,11.00
2023-04-10T02:28:18.704Z,10.23
2023-04-10T02:30:47.315Z,10.57
2023-04-10T02:33:15.050Z,11.38
2023-04-10T02:35:44.628Z,10.75
2023-04-10T02:38:13.807Z,10.50
2023-04-10T02:40:42.807Z,10.57
2023-04-10T02:43:15.472Z,11.68
2023-04-10T02:45:43.826Z,10.20
2023-04-10T02:48:16.577Z,11.63
2023-04-10T02:50:49.651Z,9.70
2023-04-10T02:53:18.413Z,11.27
2023-04-10T02:55:46.440Z,9.82
2023-04-10T02:58:15.420Z,12.00
2023-04-10T03:00:49.164Z,9.82
2023-04-10T03:03:21.759Z,9.90
2023-04-10T03:05:56.197Z,11.30
2023-04-10T03:08:43.683Z,10.25
2023-04-10T03:11:13.104Z,9.43
2023-04-10T03:13:40.830Z,10.32
2023-04-10T03:16:09.064Z,10.25
2023-04-10T03:18:38.036Z,10.63
2023-04-10T03:21:07.588Z,9.88
2023-04-10T03:26:05.111Z,11.45
2023-04-10T03:28:37.954Z,8.98
2023-04-10T03:31:07.254Z,10.43
2023-04-10T03:33:36.881Z,10.13
2023-04-10T03:36:05.585Z,10.73
2023-04-10T03:38:36.251Z,11.20
2023-04-10T03:41:05.068Z,10.15
2023-04-10T03:43:34.153Z,10.25
2023-04-10T03:46:04.819Z,9.50
2023-04-10T03:48:33.495Z,9.80
2023-04-10T03:51:01.471Z,8.85
2023-04-10T03:53:30.730Z,10.77
2023-04-10T03:55:59.862Z,9.77
2023-04-10T03:58:28.083Z,9.40
2023-04-10T04:00:57.601Z,10.20
2023-04-10T04:03:42.585Z,9.93
2023-04-10T04:06:47.178Z,9.95
2023-04-10T04:09:44.161Z,9.38
2023-04-10T04:12:37.570Z,10.05
2023-04-10T04:15:17.469Z,11.00
2023-04-10T04:18:12.820Z,8.65
2023-04-10T04:20:43.806Z,10.48
2023-04-10T04:23:44.235Z,10.90
2023-04-10T04:26:32.494Z,9.90
2023-04-10T04:29:24.813Z,10.23
2023-04-10T04:32:13.125Z,11.60
2023-04-10T04:34:59.520Z,8.57
2023-04-10T04:37:50.823Z,9.98
2023-04-10T04:40:39.343Z,8.98
2023-04-10T04:43:19.696Z,9.07
2023-04-10T04:46:16.069Z,10.13
2023-04-10T04:49:02.787Z,8.65
2023-04-10T04:51:46.670Z,10.32
2023-04-10T04:54:34.859Z,8.68
2023-04-10T04:57:23.520Z,8.15
2023-04-10T05:00:04.499Z,9.30
2023-04-10T05:02:58.584Z,9.45
2023-04-10T05:05:45.548Z,9.40
2023-04-10T05:08:27.906Z,8.82
2023-04-10T05:11:06.759Z,8.23
2023-04-10T05:13:55.805Z,9.95
2023-04-10T05:16:37.751Z,9.48
2023-04-10T05:22:13.052Z,8.48
2023-04-10T05:25:04.985Z,9.15
2023-04-10T05:27:52.693Z,9.05
2023-04-10T05:30:31.514Z,9.52
2023-04-10T05:33:13.732Z,8.50
2023-04-10T05:36:09.052Z,7.28
2023-04-10T05:39:03.979Z,8.48
2023-04-10T05:41:51.597Z,8.30
2023-04-10T05:44:45.320Z,8.57
2023-04-10T05:47:34.313Z,8.27
2023-04-10T05:50:18.971Z,6.78
2023-04-10T05:53:12.512Z,7.82
2023-04-10T05:56:00.284Z,8.23
2023-04-10T05:58:44.342Z,7.97
2023-04-10T06:01:32.379Z,7.75
2023-04-10T06:04:04.301Z,8.30
2023-04-10T06:06:32.921Z,7.43
2023-04-10T06:09:00.843Z,7.75
2023-04-10T06:11:31.100Z,7.38
2023-04-10T06:14:00.182Z,8.93
2023-04-10T06:16:37.083Z,8.30
2023-04-10T06:19:05.030Z,8.50
2023-04-10T06:21:32.869Z,8.05
2023-04-10T06:24:01.398Z,7.95
2023-04-10T06:26:30.468Z,9.60
2023-04-10T06:28:58.553Z,7.82
2023-04-10T06:31:26.850Z,7.90
2023-04-10T06:33:54.862Z,9.20
2023-04-10T06:36:23.004Z,9.10
2023-04-10T06:39:11.700Z,9.45
2023-04-10T06:41:40.955Z,9.00
2023-04-10T06:44:24.754Z,9.10
2023-04-10T06:46:52.603Z,9.80
2023-04-10T06:49:20.675Z,8.60
2023-04-10T06:51:50.964Z,10.60
2023-04-10T06:54:18.655Z,8.70
2023-04-10T06:56:48.186Z,8.38
2023-04-10T06:59:16.322Z,8.87
2023-04-10T07:01:44.095Z,9.93
2023-04-10T07:04:11.925Z,8.88
2023-04-10T07:06:40.822Z,9.85
2023-04-10T07:09:08.541Z,10.35
2023-04-10T07:11:36.712Z,8.90
2023-04-10T07:14:06.268Z,8.98
2023-04-10T07:16:34.107Z,8.40
2023-04-10T07:19:01.840Z,8.70
2023-04-10T07:21:30.656Z,10.50
2023-04-10T07:23:58.341Z,8.65
2023-04-10T07:26:26.626Z,9.80
2023-04-10T07:28:55.151Z,9.13
2023-04-10T07:31:24.650Z,10.27
2023-04-10T07:33:52.879Z,9.15
2023-04-10T07:36:21.054Z,9.95
2023-04-10T07:38:48.934Z,7.32
2023-04-10T07:41:16.625Z,9.10
2023-04-10T07:43:45.282Z,9.57
2023-04-10T07:46:13.025Z,9.98
2023-04-10T07:48:42.779Z,10.07
2023-04-10T07:51:11.031Z,12.23
2023-04-10T07:53:38.778Z,9.35
2023-04-10T07:56:07.003Z,9.20
2023-04-10T07:58:36.464Z,10.55
2023-04-10T08:01:04.190Z,9.85
2023-04-10T08:03:39.092Z,10.05
2023-04-10T08:06:10.536Z,10.68
2023-04-10T08:08:39.402Z,9.85
2023-04-10T08:11:09.116Z,9.45
2023-04-10T08:13:37.324Z,14.45
2023-04-10T08:16:05.817Z,10.35
2023-04-10T08:18:33.579Z,8.98
2023-04-10T08:21:01.524Z,7.97
2023-04-10T08:23:31.525Z,9.27
2023-04-10T08:25:59.240Z,9.35
2023-04-10T08:28:27.875Z,8.55
2023-04-10T08:30:55.633Z,9.00
2023-04-10T08:33:23.874Z,8.50
2023-04-10T08:35:52.134Z,9.65
2023-04-10T08:38:21.416Z,10.50
2023-04-10T08:40:50.965Z,10.18
2023-04-10T08:43:19.656Z,10.32
2023-04-10T08:45:47.380Z,9.25
2023-04-10T08:48:16.040Z,8.13
2023-04-10T08:50:46.982Z,9.48
2023-04-10T08:53:15.859Z,9.30
2023-04-10T08:55:45.345Z,11.18
2023-04-10T08:58:15.075Z,10.18
2023-04-10T09:00:42.824Z,9.77
2023-04-10T09:03:12.318Z,13.15
2023-04-10T09:05:40.230Z,12.02
2023-04-10T09:08:08.733Z,12.13
2023-04-10T09:10:37.502Z,10.93
2023-04-10T09:13:05.220Z,10.75
2023-04-10T09:15:56.677Z,9.75
2023-04-10T09:18:41.133Z,8.70
2023-04-10T09:21:10.228Z,9.95
2023-04-10T09:23:38.051Z,9.05
2023-04-10T09:26:23.894Z,9.57
2023-04-10T09:28:59.867Z,10.32
2023-04-10T09:31:30.654Z,10.38
2023-04-10T09:34:16.597Z,9.85
2023-04-10T09:36:46.060Z,10.15
2023-04-10T09:39:13.786Z,9.32
2023-04-10T09:41:49.210Z,8.35
2023-04-10T09:44:18.654Z,9.63
2023-04-10T09:49:16.734Z,7.80
2023-04-10T09:51:45.079Z,8.75
2023-04-10T09:54:13.249Z,10.82
2023-04-10T09:56:41.085Z,8.73
2023-04-10T09:59:09.470Z,9.05
2023-04-10T10:01:39.113Z,8.73
2023-04-10T10:04:06.854Z,7.35
2023-04-10T10:06:36.515Z,8.20
2023-04-10T10:09:06.158Z,9.40
2023-04-10T10:11:35.017Z,9.40
2023-04-10T10:14:04.301Z,7.70
2023-04-10T10:19:02.720Z,9.10
2023-04-10T10:21:34.398Z,7.38
2023-04-10T10:24:04.185Z,8.38
2023-04-10T10:26:35.267Z,8.02
2023-04-10T10:29:04.524Z,6.32
2023-04-10T10:31:35.770Z,6.85
2023-04-10T10:34:05.878Z,8.25
2023-04-10T10:36:54.191Z,7.97
2023-04-10T10:39:31.914Z,7.78
2023-04-10T10:42:03.400Z,6.78
2023-04-10T10:44:38.638Z,6.30
2023-04-10T10:47:11.161Z,6.60
2023-04-10T10:49:57.969Z,6.63
2023-04-10T10:52:37.959Z,7.05
2023-04-10T10:55:25.014Z,6.50
2023-04-10T10:57:54.474Z,7.25
2023-04-10T11:00:22.619Z,5.97
2023-04-10T11:03:23.558Z,7.68
2023-04-10T11:05:52.259Z,6.40
2023-04-10T11:08:36.676Z,7.43
2023-04-10T11:11:05.833Z,5.43
2023-04-10T11:13:36.303Z,5.97
2023-04-10T11:16:05.227Z,5.80
2023-04-10T11:19:12.998Z,5.75
2023-04-10T11:22:01.668Z,6.78
2023-04-10T11:24:31.259Z,5.35
2023-04-10T11:26:58.998Z,5.85
2023-04-10T11:29:38.231Z,5.82
2023-04-10T11:32:06.642Z,6.00
2023-04-10T11:34:35.420Z,5.90
2023-04-10T11:37:03.961Z,5.65
2023-04-10T11:39:32.463Z,5.55
2023-04-10T11:42:01.682Z,6.97
2023-04-10T11:44:31.254Z,6.20
2023-04-10T11:47:01.365Z,5.50
2023-04-10T11:49:30.658Z,5.43
2023-04-10T11:51:58.506Z,5.60
2023-04-10T11:54:27.667Z,7.38
2023-04-10T11:57:01.040Z,6.07
2023-04-10T11:59:30.190Z,6.20
2023-04-10T12:02:06.094Z,4.97
2023-04-10T12:04:35.246Z,6.80
2023-04-10T12:07:03.339Z,5.78
2023-04-10T12:09:32.113Z,5.80
2023-04-10T12:12:01.027Z,5.18
2023-04-10T12:14:31.157Z,5.28
2023-04-10T12:16:59.542Z,6.10
2023-04-10T12:19:29.314Z,5.47
2023-04-10T12:24:44.298Z,5.57
2023-04-10T12:27:16.928Z,5.78
2023-04-10T12:29:45.811Z,5.55
2023-04-10T12:32:14.077Z,5.20
2023-04-10T12:34:43.226Z,4.75
2023-04-10T12:37:11.848Z,4.60
2023-04-10T12:39:39.872Z,5.05
2023-04-10T12:42:14.878Z,4.93
2023-04-10T12:44:52.689Z,5.28
2023-04-10T12:47:21.438Z,4.97
2023-04-10T12:50:07.708Z,5.93
2023-04-10T12:52:36.824Z,4.60
2023-04-10T12:55:12.075Z,4.15
2023-04-10T12:57:41.081Z,7.35
2023-04-10T13:00:09.724Z,3.40
2023-04-10T13:02:38.469Z,3.40
2023-04-10T13:05:08.838Z,4.53
2023-04-10T13:07:37.271Z,3.00
2023-04-10T13:10:05.950Z,3.58
2023-04-10T13:12:35.460Z,4.45
2023-04-10T13:15:03.385Z,3.05
2023-04-10T13:17:31.564Z,4.10
2023-04-10T13:19:59.777Z,4.63
2023-04-10T13:22:29.059Z,2.92
2023-04-10T13:24:56.767Z,3.22
2023-04-10T13:27:25.433Z,5.72
2023-04-10T13:29:53.123Z,3.22
2023-04-10T13:32:21.378Z,3.17
2023-04-10T13:34:49.649Z,2.47
2023-04-10T13:37:17.414Z,2.75
2023-04-10T13:39:46.493Z,3.20
2023-04-10T13:44:42.581Z,3.28
2023-04-10T13:47:10.861Z,3.05
2023-04-10T13:49:39.324Z,2.58
2023-04-10T13:52:07.048Z,3.58
2023-04-10T13:54:34.731Z,3.53
2023-04-10T13:57:04.731Z,2.83
2023-04-10T13:59:32.427Z,2.90
2023-04-10T14:02:01.260Z,2.80
2023-04-10T14:04:28.966Z,3.95
2023-04-10T14:07:00.839Z,3.17
2023-04-10T14:09:30.563Z,4.15
2023-04-10T14:11:58.747Z,4.03
2023-04-10T14:14:28.417Z,3.00
2023-04-10T14:16:57.037Z,3.83
2023-04-10T14:19:24.832Z,3.88
2023-04-10T14:21:53.012Z,3.97
2023-04-10T14:24:21.425Z,3.38
2023-04-10T14:26:49.129Z,2.95
2023-04-10T14:29:20.195Z,3.17
2023-04-10T14:31:57.906Z,3.47
2023-04-10T14:34:26.965Z,2.95
2023-04-10T14:36:56.030Z,3.60
2023-04-10T14:39:24.612Z,2.72
2023-04-10T14:41:52.764Z,2.92
2023-04-10T14:44:20.548Z,2.90
2023-04-10T14:46:48.651Z,2.88
2023-04-10T14:49:17.736Z,3.38
2023-04-10T14:51:45.740Z,2.42
2023-04-10T14:54:14.278Z,3.00
2023-04-10T14:56:41.966Z,3.70
2023-04-10T14:59:10.079Z,3.22
2023-04-10T15:01:38.346Z,3.35
2023-04-10T15:04:06.300Z,2.65
2023-04-10T15:06:35.914Z,2.58
2023-04-10T15:09:03.972Z,2.55
2023-04-10T15:11:31.657Z,2.70
2023-04-10T15:14:00.765Z,4.25
2023-04-10T15:16:28.514Z,2.35
2023-04-10T15:18:56.792Z,2.67
2023-04-10T15:21:24.950Z,2.90
2023-04-10T15:23:54.387Z,2.88
2023-04-10T15:26:22.712Z,2.60
2023-04-10T15:28:53.291Z,2.70
2023-04-10T15:31:23.323Z,5.28
2023-04-10T15:33:52.317Z,12.98
2023-04-10T15:36:20.875Z,9.50
2023-04-10T15:38:50.200Z,7.82
2023-04-10T15:41:20.688Z,4.93
2023-04-10T15:46:18.068Z,4.00
2023-04-10T15:51:14.337Z,2.53
2023-04-10T15:53:42.091Z,9.82
2023-04-10T15:56:09.773Z,2.40
2023-04-10T15:58:39.881Z,3.08
2023-04-10T16:01:07.826Z,2.80
2023-04-10T16:03:36.182Z,2.60
2023-04-10T16:06:04.690Z,2.35
2023-04-10T16:08:52.310Z,2.63
2023-04-10T16:11:22.068Z,2.88
2023-04-10T16:13:51.302Z,2.88
2023-04-10T16:16:19.503Z,2.47
2023-04-10T16:18:48.154Z,3.30
2023-04-10T16:21:16.172Z,2.53
2023-04-10T16:23:44.324Z,3.65
2023-04-10T16:26:12.473Z,3.40
2023-04-10T16:28:40.218Z,2.88
2023-04-10T16:31:09.344Z,3.60
2023-04-10T16:33:38.149Z,3.60
2023-04-10T16:36:06.227Z,3.03
2023-04-10T16:38:34.655Z,3.00
2023-04-10T16:41:03.364Z,3.00
2023-04-10T16:43:31.607Z,3.63
2023-04-10T16:45:59.741Z,3.50
2023-04-10T16:48:29.276Z,4.13
2023-04-10T16:51:04.998Z,3.42
2023-04-10T16:53:33.391Z,4.35
2023-04-10T16:56:04.497Z,3.63
2023-04-10T16:58:34.085Z,3.38
2023-04-10T17:01:02.298Z,3.60
2023-04-10T17:03:31.433Z,2.72
2023-04-10T17:05:59.149Z,2.72
2023-04-10T17:08:47.719Z,3.33
2023-04-10T17:11:16.017Z,3.88
2023-04-10T17:13:43.717Z,5.30
2023-04-10T17:16:12.328Z,3.75
2023-04-10T17:18:41.464Z,3.63
2023-04-10T17:21:12.056Z,4.93
2023-04-10T17:23:40.528Z,3.38
2023-04-10T17:26:13.148Z,4.57
2023-04-10T17:28:44.811Z,3.20
2023-04-10T17:31:12.763Z,3.80
2023-04-10T17:33:42.849Z,4.90
2023-04-10T17:36:12.701Z,4.35
2023-04-10T17:38:41.017Z,3.50
2023-04-10T17:41:09.133Z,3.22
2023-04-10T17:43:38.781Z,5.30
2023-04-10T17:46:06.803Z,4.10
2023-04-10T17:48:35.911Z,3.75
2023-04-10T17:51:07.408Z,4.07
2023-04-10T17:53:36.347Z,3.50
2023-04-10T17:56:04.166Z,4.55
2023-04-10T17:58:32.783Z,3.97
2023-04-10T18:01:01.012Z,3.88
2023-04-10T18:03:28.926Z,3.25
2023-04-10T18:05:57.238Z,2.92
2023-04-10T18:08:32.718Z,4.13
2023-04-10T18:11:01.495Z,3.30
2023-04-10T18:13:29.237Z,4.18
2023-04-10T18:15:57.462Z,3.50
2023-04-10T18:18:25.672Z,4.95
2023-04-10T18:20:53.405Z,3.35
2023-04-10T18:23:21.078Z,3.67
2023-04-10T18:25:55.192Z,5.68
2023-04-10T18:28:23.032Z,4.40
2023-04-10T18:30:53.788Z,3.28
2023-04-10T18:33:24.529Z,3.90
2023-04-10T18:35:52.727Z,3.60
2023-04-10T18:38:20.941Z,3.80
2023-04-10T18:40:49.723Z,3.65
2023-04-10T18:43:19.241Z,3.90
2023-04-10T18:45:47.883Z,3.55
2023-04-10T18:48:16.180Z,3.70
2023-04-10T18:50:43.890Z,3.90
2023-04-10T18:53:13.539Z,2.80
2023-04-10T18:55:41.672Z,3.65
2023-04-10T18:58:09.821Z,3.22
2023-04-10T19:00:39.279Z,5.38
2023-04-10T19:03:07.141Z,3.92
2023-04-10T19:05:34.953Z,3.78
2023-04-10T19:08:04.741Z,3.47
2023-04-10T19:10:32.928Z,3.60
2023-04-10T19:13:01.181Z,3.67
2023-04-10T19:15:29.013Z,4.55
2023-04-10T19:17:58.195Z,3.20
2023-04-10T19:20:50.700Z,3.40
2023-04-10T19:23:15.110Z,3.22
2023-04-10T19:25:44.119Z,5.38
2023-04-10T19:28:11.893Z,6.00
2023-04-10T19:30:39.625Z,7.22
2023-04-10T19:33:09.752Z,5.25
2023-04-10T19:35:38.259Z,4.55
2023-04-10T19:38:06.469Z,3.53
2023-04-10T19:40:34.650Z,3.05
2023-04-10T19:43:02.642Z,3.88
2023-04-10T19:45:32.388Z,3.20
2023-04-10T19:48:01.549Z,3.75
2023-04-10T19:50:31.203Z,2.80
2023-04-10T19:52:59.627Z,2.95
2023-04-10T19:55:28.036Z,5.35
2023-04-10T19:57:56.000Z,4.00
2023-04-10T20:00:23.748Z,3.60
2023-04-10T20:02:52.627Z,5.07
2023-04-10T20:05:20.723Z,4.38
2023-04-10T20:07:50.511Z,6.57
2023-04-10T20:10:18.991Z,5.38
2023-04-10T20:12:46.801Z,4.53
2023-04-10T20:15:14.532Z,3.35
2023-04-10T20:17:44.030Z,5.22
2023-04-10T20:20:12.745Z,4.65
2023-04-10T20:22:41.053Z,5.30
2023-04-10T20:25:11.193Z,5.82
2023-04-10T20:27:39.798Z,3.60
2023-04-10T20:30:08.715Z,4.53
2023-04-10T20:32:37.051Z,6.47
2023-04-10T20:35:05.000Z,3.60
2023-04-10T20:37:34.266Z,5.30
2023-04-10T20:40:02.043Z,4.00
2023-04-10T20:42:31.707Z,4.47
2023-04-10T20:44:59.893Z,4.23
2023-04-10T20:47:27.755Z,3.95
2023-04-10T20:49:55.515Z,4.35
2023-04-10T20:52:24.203Z,4.20
2023-04-10T20:54:51.917Z,4.20
2023-04-10T20:57:20.276Z,5.93
2023-04-10T20:59:50.309Z,4.82
2023-04-10T21:05:07.319Z,4.25
2023-04-10T21:07:35.100Z,4.75
2023-04-10T21:10:03.777Z,6.43
2023-04-10T21:12:32.136Z,3.78
2023-04-10T21:15:01.953Z,4.93
2023-04-10T21:17:31.904Z,4.50
2023-04-10T21:19:59.892Z,4.15
2023-04-10T21:22:29.334Z,4.88
2023-04-10T21:24:58.132Z,4.60
2023-04-10T21:27:25.975Z,5.90
2023-04-10T21:29:53.770Z,6.00
2023-04-10T21:32:23.816Z,5.70
2023-04-10T21:34:51.567Z,7.18
2023-04-10T21:37:20.398Z,5.43
2023-04-10T21:39:48.522Z,6.60
2023-04-10T21:42:16.396Z,5.90
2023-04-10T21:44:44.104Z,10.07
2023-04-10T21:47:13.760Z,6.00
2023-04-10T21:49:42.885Z,8.38
2023-04-10T21:52:31.075Z,8.60
2023-04-10T21:54:58.944Z,7.75
2023-04-10T21:57:26.655Z,7.03
2023-04-10T21:59:55.289Z,6.75
2023-04-10T22:02:23.152Z,7.45
2023-04-10T22:04:54.785Z,6.10
2023-04-10T22:07:23.767Z,5.30
2023-04-10T22:09:51.451Z,4.95
2023-04-10T22:12:19.683Z,5.10
2023-04-10T22:14:49.647Z,5.88
2023-04-10T22:19:44.900Z,5.20
2023-04-10T22:22:15.088Z,5.00
2023-04-10T22:24:42.824Z,6.10
2023-04-10T22:27:10.931Z,3.97
2023-04-10T22:29:40.644Z,7.63
2023-04-10T22:32:08.442Z,3.78
2023-04-10T22:34:36.711Z,4.63
2023-04-10T22:37:04.874Z,4.00
2023-04-10T22:39:34.081Z,6.47
2023-04-10T22:42:02.741Z,5.85
2023-04-10T22:44:30.420Z,5.57
2023-04-10T22:46:58.613Z,6.55
2023-04-10T22:49:26.802Z,4.40
2023-04-10T22:51:54.576Z,4.40
2023-04-10T22:54:22.779Z,3.97
2023-04-10T22:56:52.372Z,5.22
2023-04-10T23:01:49.008Z,3.20
2023-04-10T23:04:16.872Z,4.93
2023-04-10T23:06:45.085Z,4.78
2023-04-10T23:09:13.220Z,4.55
2023-04-10T23:11:41.025Z,8.40
2023-04-10T23:14:12.062Z,5.45
2023-04-10T23:16:39.812Z,4.78
2023-04-10T23:19:07.520Z,3.30
2023-04-10T23:21:35.757Z,3.97
2023-04-10T23:24:03.435Z,4.32
2023-04-10T23:26:31.891Z,4.57
2023-04-10T23:29:00.323Z,4.32
2023-04-10T23:31:29.429Z,2.78
2023-04-10T23:33:57.687Z,2.83
2023-04-10T23:36:25.745Z,5.45
2023-04-10T23:38:53.833Z,3.67
2023-04-10T23:41:22.500Z,3.10
2023-04-10T23:43:51.041Z,4.68
2023-04-10T23:46:18.787Z,3.78
2023-04-10T23:48:50.918Z,4.78
2023-04-10T23:51:18.700Z,5.75
2023-04-10T23:53:46.885Z,4.45
2023-04-10T23:56:15.253Z,2.95
2023-04-10T23:58:43.230Z,3.72
